Flight Track Log - Related Links

Times and Time Zones

All times are in EDT time to prevent confusion due to time zone crossing. See the EGF3796 flight status page for this flight to view local times or setup timezone preferences in your user account.

Time Position Orientation Groundspeed Altitude Reporting Facility
EDT Latitude Longitude Course Direction KTS MPH feet Rate Location/Type
Fri 07:45:01 PM 42.0000 -87.8833 201° Southwest 153 176 2,700  Level Chicago TRACON
Fri 07:46:02 PM 42.0167 -87.8000 75° East 235 270 4,800 1,190 Climbing Chicago TRACON
Fri 07:47:00 PM 41.6578 -88.0513 203° Southwest  Level FlightAware Approximate
Fri 07:47:02 PM 41.9500 -87.8333 200° South 276 318 5,100  Level Chicago TRACON
Fri 07:47:56 PM 41.9000 -87.9000 225° Southwest 277 319 5,100 684 Level Chicago TRACON
Fri 07:48:00 PM 41.5512 -88.1029 197° South  Level FlightAware Approximate
Fri 07:48:56 PM 41.8500 -87.9667 225° Southwest 272 313 6,400  Level Chicago TRACON
Fri 07:49:00 PM 41.4424 -88.1464 197° South  Level FlightAware Approximate
Fri 07:49:12 PM 41.8375 -87.9661 178° South 269 310 6,600  Level Chicago Center
Fri 07:50:00 PM 41.3425 -88.1871 201° Southwest  Level FlightAware Approximate
Fri 07:50:13 PM 41.7683 -87.9978 199° South 265 305 9,400  Level Chicago Center
Fri 07:51:15 PM 41.6811 -88.0414 200° South 280 322 12,400 2,855 Climbing Chicago Center
Fri 07:52:17 PM 41.6050 -88.0794 201° Southwest 292 336 15,300 2,613 Climbing Chicago Center
Fri 07:53:19 PM 41.5300 -88.1167 200° South 292 336 17,800 1,790 Climbing Chicago Center
Fri 07:54:21 PM 41.4506 -88.1558 200° South 314 361 19,000 1,210 Climbing Chicago Center
Fri 07:55:23 PM 41.3422 -88.2086 200° South 355 409 20,300 1,161 Climbing Chicago Center
Fri 07:56:25 PM 41.2422 -88.2542 199° South 382 440 21,400 1,113 Climbing Chicago Center
Fri 07:57:27 PM 41.1372 -88.3017 199° South 398 458 22,600 1,161 Climbing Chicago Center
Fri 07:58:29 PM 41.0286 -88.3500 199° South 410 472 23,800 1,161 Climbing Chicago Center
Fri 07:59:31 PM 40.9197 -88.3992 199° South 414 476 25,000 1,258 Climbing Chicago Center
Fri 08:00:33 PM 40.7844 -88.4586 198° South 425 489 26,400 1,258 Climbing Chicago Center
Fri 08:01:35 PM 40.6719 -88.5086 199° South 429 494 27,600 1,065 Climbing Chicago Center
Fri 08:02:37 PM 40.5803 -88.6169 222° Southwest 449 517 28,600 919 Climbing Chicago Center
Fri 08:03:39 PM 40.4944 -88.7342 226° Southwest 448 516 29,500 1,016 Climbing Chicago Center
Fri 08:04:41 PM 40.3953 -88.8692 226° Southwest 451 519 30,700 1,065 Climbing Chicago Center
Fri 08:05:43 PM 40.3075 -88.9894 226° Southwest 452 520 31,700 968 Climbing Chicago Center
Fri 08:06:45 PM 40.2192 -89.1072 226° Southwest 452 520 32,700 919 Climbing Chicago Center
Fri 08:07:47 PM 40.1314 -89.2275 226° Southwest 453 521 33,600 842 Climbing Chicago Center
Fri 08:08:39 PM 40.0594 -89.3217 225° Southwest 452 520 34,300 842 Climbing Kansas City Center
Fri 08:09:41 PM 39.9719 -89.4389 226° Southwest 450 518 35,200 829 Climbing Kansas City Center
Fri 08:10:42 PM 39.8847 -89.5575 226° Southwest 451 519 36,000 390 Climbing Kansas City Center
Fri 08:11:44 PM 39.7783 -89.6975 225° Southwest 450 518 36,000  Level Kansas City Center
Fri 08:12:46 PM 39.6931 -89.8128 226° Southwest 450 518 36,000  Level Kansas City Center
Fri 08:13:47 PM 39.6058 -89.9272 225° Southwest 449 517 36,000  Level Kansas City Center
Fri 08:14:49 PM 39.5175 -90.0428 225° Southwest 452 520 36,000 488 Level Kansas City Center
Fri 08:15:50 PM 39.4311 -90.1569 226° Southwest 448 516 37,000 927 Climbing Kansas City Center
Fri 08:16:52 PM 39.3456 -90.2692 225° Southwest 443 510 37,900 484 Climbing Kansas City Center
Fri 08:17:54 PM 39.2431 -90.4031 225° Southwest 440 506 38,000 49 Climbing Kansas City Center
Fri 08:18:55 PM 39.1567 -90.5156 225° Southwest 443 510 38,000  Level Kansas City Center
Fri 08:19:57 PM 39.0692 -90.6286 225° Southwest 448 516 38,000  Level Kansas City Center
Fri 08:20:59 PM 38.9850 -90.7375 225° Southwest 438 504 38,000  Level Kansas City Center
Fri 08:22:00 PM 38.8983 -90.8464 224° Southwest 440 506 38,000  Level Kansas City Center
Fri 08:23:02 PM 38.7947 -90.9817 226° Southwest 445 512 38,000  Level Kansas City Center
Fri 08:24:04 PM 38.7086 -91.0897 224° Southwest 442 509 38,000  Level Kansas City Center
Fri 08:25:06 PM 38.6211 -91.2000 225° Southwest 443 510 38,000  Level Kansas City Center
Fri 08:26:07 PM 38.5342 -91.3097 225° Southwest 443 510 38,000  Level Kansas City Center
Fri 08:27:09 PM 38.4372 -91.4328 225° Southwest 442 509 38,000  Level Kansas City Center
Fri 08:28:11 PM 38.3481 -91.5425 224° Southwest 442 509 38,000  Level Kansas City Center
Fri 08:29:12 PM 38.2589 -91.6531 224° Southwest 444 511 38,000  Level Kansas City Center
Fri 08:30:14 PM 38.1697 -91.7667 225° Southwest 448 516 38,000 -829 Level Kansas City Center
Fri 08:31:15 PM 38.0775 -91.8789 224° Southwest 453 521 36,300 -1,756 Descending Kansas City Center
Fri 08:32:17 PM 37.9864 -91.9922 224° Southwest 452 520 34,400 -1,839 Descending Kansas City Center
Fri 08:33:19 PM 37.8950 -92.1061 225° Southwest 450 518 32,500 -1,854 Descending Kansas City Center
Fri 08:34:20 PM 37.8022 -92.2183 224° Southwest 456 525 30,600 -1,805 Descending Kansas City Center
Fri 08:35:22 PM 37.7092 -92.3328 224° Southwest 474 545 28,800 -1,839 Descending Kansas City Center
Fri 08:36:24 PM 37.6114 -92.4508 224° Southwest 465 535 26,800 -1,805 Descending Kansas City Center
Fri 08:37:25 PM 37.5239 -92.5583 224° Southwest 444 511 25,100 -1,659 Descending Kansas City Center
Fri 08:38:27 PM 37.4339 -92.6678 224° Southwest 445 512 23,400 -1,805 Descending Kansas City Center
Fri 08:39:28 PM 37.3242 -92.7942 223° Southwest 443 510 21,400 -1,659 Descending Kansas City Center
Fri 08:40:30 PM 37.2378 -92.8992 224° Southwest 433 498 20,000 -1,355 Descending Kansas City Center
Fri 08:41:32 PM 37.1533 -92.9972 223° Southwest 418 481 18,600 -1,220 Descending Kansas City Center
Fri 08:42:33 PM 37.0700 -93.0961 223° Southwest 412 474 17,500 -1,171 Descending Kansas City Center
Fri 08:43:35 PM 36.9886 -93.1919 223° Southwest 404 465 16,200 -1,452 Descending Kansas City Center
Fri 08:44:37 PM 36.9072 -93.2875 223° Southwest 400 460 14,500 -1,610 Descending Kansas City Center
Fri 08:45:38 PM 36.8294 -93.3906 227° Southwest 397 457 12,900 -1,317 Descending Kansas City Center
Fri 08:46:40 PM 36.7553 -93.4853 226° Southwest 389 448 11,800 -1,073 Descending Kansas City Center
Fri 08:47:41 PM 36.6853 -93.5731 225° Southwest 368 423 10,700 -878 Descending Kansas City Center
Fri 08:48:43 PM 36.6186 -93.6581 226° Southwest 351 404 10,000 -1,065 Descending Kansas City Center
Fri 08:49:45 PM 36.5581 -93.7439 229° Southwest 286 329 8,500 -1,366 Descending Kansas City Center
Fri 08:50:46 PM 36.5128 -93.8100 230° Southwest 272 313 7,200 -1,561 Descending Kansas City Center
Fri 08:51:48 PM 36.4636 -93.8781 228° Southwest 267 307 5,300 -1,463 Descending Kansas City Center
Fri 08:52:49 PM 36.4164 -93.9453 229° Southwest 263 303 4,200 -829 Descending Kansas City Center
Fri 08:53:51 PM 36.3708 -94.0086 228° Southwest 255 293 3,600 -435 Descending Kansas City Center
Fri 08:54:53 PM 36.3283 -94.0681 228° Southwest 245 282 3,300 -244 Descending Kansas City Center
Fri 08:55:54 PM 36.2692 -94.1225 217° Southwest 233 268 3,100 -197 Descending Kansas City Center

Login

Don't have an account? Register now (free) for customized features, flight alerts, and more!